sensor_id;sensor_type;location;lat;lon;timestamp;P1;durP1;ratioP1;P2;durP2;ratioP2
16514;SDS011;8370;52.556;7.970;2022-08-11T00:00:35;3.05;;;2.53;;
16514;SDS011;8370;52.556;7.970;2022-08-11T00:03:04;3.13;;;2.40;;
16514;SDS011;8370;52.556;7.970;2022-08-11T00:05:32;2.50;;;2.15;;
16514;SDS011;8370;52.556;7.970;2022-08-11T00:08:08;2.85;;;2.53;;
16514;SDS011;8370;52.556;7.970;2022-08-11T00:10:34;3.28;;;2.28;;
16514;SDS011;8370;52.556;7.970;2022-08-11T00:13:03;6.43;;;2.90;;
16514;SDS011;8370;52.556;7.970;2022-08-11T00:15:38;3.20;;;2.40;;
16514;SDS011;8370;52.556;7.970;2022-08-11T00:18:06;5.35;;;2.30;;
16514;SDS011;8370;52.556;7.970;2022-08-11T00:20:34;4.10;;;2.40;;
16514;SDS011;8370;52.556;7.970;2022-08-11T00:23:05;2.75;;;2.25;;
16514;SDS011;8370;52.556;7.970;2022-08-11T00:25:45;2.67;;;2.20;;
16514;SDS011;8370;52.556;7.970;2022-08-11T00:28:21;4.80;;;2.97;;
16514;SDS011;8370;52.556;7.970;2022-08-11T00:30:56;3.13;;;2.35;;
16514;SDS011;8370;52.556;7.970;2022-08-11T00:33:25;6.18;;;3.30;;
16514;SDS011;8370;52.556;7.970;2022-08-11T00:36:03;5.57;;;2.80;;
16514;SDS011;8370;52.556;7.970;2022-08-11T00:38:31;5.50;;;2.72;;
16514;SDS011;8370;52.556;7.970;2022-08-11T01:03:53;4.40;;;3.00;;
16514;SDS011;8370;52.556;7.970;2022-08-11T01:18:09;3.57;;;2.70;;
16514;SDS011;8370;52.556;7.970;2022-08-11T01:23:48;4.57;;;3.17;;
16514;SDS011;8370;52.556;7.970;2022-08-11T01:32:01;4.60;;;3.30;;
16514;SDS011;8370;52.556;7.970;2022-08-11T01:40:51;3.80;;;2.93;;
16514;SDS011;8370;52.556;7.970;2022-08-11T01:47:04;4.97;;;3.40;;
16514;SDS011;8370;52.556;7.970;2022-08-11T01:50:22;3.70;;;3.20;;
16514;SDS011;8370;52.556;7.970;2022-08-11T01:53:00;4.53;;;3.30;;
16514;SDS011;8370;52.556;7.970;2022-08-11T01:56:04;4.70;;;3.07;;
16514;SDS011;8370;52.556;7.970;2022-08-11T02:04:34;4.50;;;3.30;;
16514;SDS011;8370;52.556;7.970;2022-08-11T02:10:08;5.90;;;3.27;;
16514;SDS011;8370;52.556;7.970;2022-08-11T02:16:15;5.17;;;2.83;;
16514;SDS011;8370;52.556;7.970;2022-08-11T02:22:00;4.57;;;3.20;;
16514;SDS011;8370;52.556;7.970;2022-08-11T02:24:51;4.80;;;3.40;;
16514;SDS011;8370;52.556;7.970;2022-08-11T02:27:33;4.27;;;3.13;;
16514;SDS011;8370;52.556;7.970;2022-08-11T02:30:06;6.90;;;3.23;;
16514;SDS011;8370;52.556;7.970;2022-08-11T02:35:47;6.70;;;3.70;;
16514;SDS011;8370;52.556;7.970;2022-08-11T02:41:24;4.97;;;3.40;;
16514;SDS011;8370;52.556;7.970;2022-08-11T02:44:43;4.47;;;3.33;;
16514;SDS011;8370;52.556;7.970;2022-08-11T02:53:43;5.33;;;2.93;;
16514;SDS011;8370;52.556;7.970;2022-08-11T02:56:38;4.93;;;3.63;;
16514;SDS011;8370;52.556;7.970;2022-08-11T03:02:18;5.00;;;3.37;;
16514;SDS011;8370;52.556;7.970;2022-08-11T03:07:50;4.17;;;2.90;;
16514;SDS011;8370;52.556;7.970;2022-08-11T03:13:33;3.13;;;2.83;;
16514;SDS011;8370;52.556;7.970;2022-08-11T03:16:50;3.33;;;3.00;;
16514;SDS011;8370;52.556;7.970;2022-08-11T03:19:25;4.60;;;3.53;;
16514;SDS011;8370;52.556;7.970;2022-08-11T03:21:56;6.30;;;3.43;;
16514;SDS011;8370;52.556;7.970;2022-08-11T03:27:22;6.80;;;3.50;;
16514;SDS011;8370;52.556;7.970;2022-08-11T03:36:05;3.63;;;3.20;;
16514;SDS011;8370;52.556;7.970;2022-08-11T03:55:22;6.13;;;3.70;;
16514;SDS011;8370;52.556;7.970;2022-08-11T03:58:08;5.77;;;3.27;;
16514;SDS011;8370;52.556;7.970;2022-08-11T04:09:23;6.03;;;3.90;;
16514;SDS011;8370;52.556;7.970;2022-08-11T04:12:13;4.63;;;3.47;;
16514;SDS011;8370;52.556;7.970;2022-08-11T04:18:05;6.07;;;4.07;;
16514;SDS011;8370;52.556;7.970;2022-08-11T04:29:05;5.50;;;3.87;;
16514;SDS011;8370;52.556;7.970;2022-08-11T04:32:00;4.70;;;3.83;;
16514;SDS011;8370;52.556;7.970;2022-08-11T04:35:10;5.60;;;4.53;;
16514;SDS011;8370;52.556;7.970;2022-08-11T04:46:50;7.17;;;4.83;;
16514;SDS011;8370;52.556;7.970;2022-08-11T04:50:05;7.07;;;4.77;;
16514;SDS011;8370;52.556;7.970;2022-08-11T04:56:07;7.93;;;4.67;;
16514;SDS011;8370;52.556;7.970;2022-08-11T04:59:08;12.53;;;5.40;;
16514;SDS011;8370;52.556;7.970;2022-08-11T05:05:14;8.03;;;4.67;;
16514;SDS011;8370;52.556;7.970;2022-08-11T05:13:59;7.97;;;4.93;;
16514;SDS011;8370;52.556;7.970;2022-08-11T05:16:53;6.70;;;4.73;;
16514;SDS011;8370;52.556;7.970;2022-08-11T05:19:44;9.00;;;5.67;;
16514;SDS011;8370;52.556;7.970;2022-08-11T05:22:30;7.83;;;5.77;;
16514;SDS011;8370;52.556;7.970;2022-08-11T05:25:19;9.97;;;6.40;;
16514;SDS011;8370;52.556;7.970;2022-08-11T05:28:10;8.93;;;6.03;;
16514;SDS011;8370;52.556;7.970;2022-08-11T05:30:59;9.23;;;6.13;;
16514;SDS011;8370;52.556;7.970;2022-08-11T05:33:49;9.43;;;6.87;;
16514;SDS011;8370;52.556;7.970;2022-08-11T05:36:41;10.90;;;6.60;;
16514;SDS011;8370;52.556;7.970;2022-08-11T05:39:18;17.67;;;6.90;;
16514;SDS011;8370;52.556;7.970;2022-08-11T05:42:07;19.60;;;8.07;;
16514;SDS011;8370;52.556;7.970;2022-08-11T05:44:56;14.03;;;7.50;;
16514;SDS011;8370;52.556;7.970;2022-08-11T05:47:49;13.67;;;7.23;;
16514;SDS011;8370;52.556;7.970;2022-08-11T05:50:34;16.60;;;7.33;;
16514;SDS011;8370;52.556;7.970;2022-08-11T05:53:19;9.27;;;6.70;;
16514;SDS011;8370;52.556;7.970;2022-08-11T05:56:04;11.33;;;6.97;;
16514;SDS011;8370;52.556;7.970;2022-08-11T05:58:46;12.53;;;7.07;;
16514;SDS011;8370;52.556;7.970;2022-08-11T06:01:21;9.23;;;6.53;;
16514;SDS011;8370;52.556;7.970;2022-08-11T06:03:54;8.77;;;7.17;;
16514;SDS011;8370;52.556;7.970;2022-08-11T06:06:40;9.50;;;6.97;;
16514;SDS011;8370;52.556;7.970;2022-08-11T06:09:34;8.23;;;6.53;;
16514;SDS011;8370;52.556;7.970;2022-08-11T06:14:30;9.07;;;6.70;;
16514;SDS011;8370;52.556;7.970;2022-08-11T06:16:58;10.80;;;6.27;;
16514;SDS011;8370;52.556;7.970;2022-08-11T06:20:25;9.53;;;6.57;;
16514;SDS011;8370;52.556;7.970;2022-08-11T06:22:30;7.77;;;6.23;;
16514;SDS011;8370;52.556;7.970;2022-08-11T06:24:58;10.90;;;5.80;;
16514;SDS011;8370;52.556;7.970;2022-08-11T06:27:26;11.43;;;6.47;;
16514;SDS011;8370;52.556;7.970;2022-08-11T06:29:55;7.83;;;6.33;;
16514;SDS011;8370;52.556;7.970;2022-08-11T06:32:28;11.00;;;6.00;;
16514;SDS011;8370;52.556;7.970;2022-08-11T06:35:00;8.93;;;6.53;;
16514;SDS011;8370;52.556;7.970;2022-08-11T06:37:43;10.30;;;6.50;;
16514;SDS011;8370;52.556;7.970;2022-08-11T06:45:49;8.75;;;5.72;;
16514;SDS011;8370;52.556;7.970;2022-08-11T06:48:21;7.45;;;5.47;;
16514;SDS011;8370;52.556;7.970;2022-08-11T06:50:51;7.93;;;6.10;;
16514;SDS011;8370;52.556;7.970;2022-08-11T06:56:11;19.27;;;9.18;;
16514;SDS011;8370;52.556;7.970;2022-08-11T06:58:58;14.55;;;6.90;;
16514;SDS011;8370;52.556;7.970;2022-08-11T07:01:56;7.63;;;5.60;;
16514;SDS011;8370;52.556;7.970;2022-08-11T07:04:42;8.10;;;6.22;;
16514;SDS011;8370;52.556;7.970;2022-08-11T07:13:08;4.95;;;3.65;;
16514;SDS011;8370;52.556;7.970;2022-08-11T07:15:56;8.80;;;5.13;;
16514;SDS011;8370;52.556;7.970;2022-08-11T07:18:26;8.57;;;4.78;;
16514;SDS011;8370;52.556;7.970;2022-08-11T07:21:18;7.57;;;4.60;;
16514;SDS011;8370;52.556;7.970;2022-08-11T07:24:11;6.13;;;4.35;;
16514;SDS011;8370;52.556;7.970;2022-08-11T07:27:02;7.43;;;4.10;;
16514;SDS011;8370;52.556;7.970;2022-08-11T07:29:50;8.20;;;4.50;;
16514;SDS011;8370;52.556;7.970;2022-08-11T07:32:23;8.10;;;3.55;;
16514;SDS011;8370;52.556;7.970;2022-08-11T07:34:55;6.70;;;4.00;;
16514;SDS011;8370;52.556;7.970;2022-08-11T07:37:41;7.57;;;4.63;;
16514;SDS011;8370;52.556;7.970;2022-08-11T07:40:21;5.75;;;4.18;;
16514;SDS011;8370;52.556;7.970;2022-08-11T07:42:49;7.30;;;4.50;;
16514;SDS011;8370;52.556;7.970;2022-08-11T07:45:16;11.05;;;4.95;;
16514;SDS011;8370;52.556;7.970;2022-08-11T07:48:01;6.30;;;5.03;;
16514;SDS011;8370;52.556;7.970;2022-08-11T07:50:46;8.73;;;4.40;;
16514;SDS011;8370;52.556;7.970;2022-08-11T07:53:31;7.38;;;4.05;;
16514;SDS011;8370;52.556;7.970;2022-08-11T07:55:59;9.23;;;4.80;;
16514;SDS011;8370;52.556;7.970;2022-08-11T07:58:26;8.50;;;4.40;;
16514;SDS011;8370;52.556;7.970;2022-08-11T08:01:16;7.93;;;5.03;;
16514;SDS011;8370;52.556;7.970;2022-08-11T08:04:03;6.85;;;4.10;;
16514;SDS011;8370;52.556;7.970;2022-08-11T08:06:49;6.35;;;4.65;;
16514;SDS011;8370;52.556;7.970;2022-08-11T08:09:34;5.68;;;3.83;;
16514;SDS011;8370;52.556;7.970;2022-08-11T08:12:23;4.10;;;3.55;;
16514;SDS011;8370;52.556;7.970;2022-08-11T08:15:08;8.35;;;4.55;;
16514;SDS011;8370;52.556;7.970;2022-08-11T08:17:54;10.57;;;4.43;;
16514;SDS011;8370;52.556;7.970;2022-08-11T08:20:23;6.97;;;3.88;;
16514;SDS011;8370;52.556;7.970;2022-08-11T08:23:01;8.88;;;4.18;;
16514;SDS011;8370;52.556;7.970;2022-08-11T08:25:28;10.55;;;4.13;;
16514;SDS011;8370;52.556;7.970;2022-08-11T08:27:56;6.10;;;3.38;;
16514;SDS011;8370;52.556;7.970;2022-08-11T08:30:23;7.00;;;3.95;;
16514;SDS011;8370;52.556;7.970;2022-08-11T08:33:11;5.97;;;3.03;;
16514;SDS011;8370;52.556;7.970;2022-08-11T08:35:43;7.22;;;3.30;;
16514;SDS011;8370;52.556;7.970;2022-08-11T08:38:10;6.20;;;3.15;;
16514;SDS011;8370;52.556;7.970;2022-08-11T08:40:37;7.47;;;2.97;;
16514;SDS011;8370;52.556;7.970;2022-08-11T08:43:06;6.43;;;2.80;;
16514;SDS011;8370;52.556;7.970;2022-08-11T08:45:35;6.03;;;2.90;;
16514;SDS011;8370;52.556;7.970;2022-08-11T08:48:15;8.40;;;2.63;;
16514;SDS011;8370;52.556;7.970;2022-08-11T08:50:49;5.72;;;2.40;;
16514;SDS011;8370;52.556;7.970;2022-08-11T08:53:38;5.88;;;2.28;;
16514;SDS011;8370;52.556;7.970;2022-08-11T08:56:05;4.65;;;2.15;;
16514;SDS011;8370;52.556;7.970;2022-08-11T08:58:34;3.10;;;1.70;;
16514;SDS011;8370;52.556;7.970;2022-08-11T09:01:01;8.95;;;4.28;;
16514;SDS011;8370;52.556;7.970;2022-08-11T09:03:27;2.58;;;1.80;;
16514;SDS011;8370;52.556;7.970;2022-08-11T09:05:53;3.55;;;1.73;;
16514;SDS011;8370;52.556;7.970;2022-08-11T09:08:20;2.25;;;1.30;;
16514;SDS011;8370;52.556;7.970;2022-08-11T09:10:47;4.82;;;1.60;;
16514;SDS011;8370;52.556;7.970;2022-08-11T09:13:34;4.35;;;1.58;;
16514;SDS011;8370;52.556;7.970;2022-08-11T09:16:01;3.90;;;1.52;;
16514;SDS011;8370;52.556;7.970;2022-08-11T09:18:30;4.00;;;1.35;;
16514;SDS011;8370;52.556;7.970;2022-08-11T09:20:56;1.40;;;1.30;;
16514;SDS011;8370;52.556;7.970;2022-08-11T09:23:22;2.33;;;1.10;;
16514;SDS011;8370;52.556;7.970;2022-08-11T09:26:06;3.65;;;1.17;;
16514;SDS011;8370;52.556;7.970;2022-08-11T09:28:52;3.13;;;1.27;;
16514;SDS011;8370;52.556;7.970;2022-08-11T09:31:18;2.10;;;1.23;;
16514;SDS011;8370;52.556;7.970;2022-08-11T09:33:46;1.13;;;1.00;;
16514;SDS011;8370;52.556;7.970;2022-08-11T09:36:14;2.95;;;1.08;;
16514;SDS011;8370;52.556;7.970;2022-08-11T09:39:03;2.90;;;1.23;;
16514;SDS011;8370;52.556;7.970;2022-08-11T09:41:48;1.20;;;1.10;;
16514;SDS011;8370;52.556;7.970;2022-08-11T09:44:14;2.10;;;1.08;;
16514;SDS011;8370;52.556;7.970;2022-08-11T09:46:58;1.33;;;1.00;;
16514;SDS011;8370;52.556;7.970;2022-08-11T09:49:25;1.63;;;0.95;;
16514;SDS011;8370;52.556;7.970;2022-08-11T09:51:51;3.70;;;0.95;;
16514;SDS011;8370;52.556;7.970;2022-08-11T09:54:18;4.20;;;1.15;;
16514;SDS011;8370;52.556;7.970;2022-08-11T09:56:44;2.80;;;0.75;;
16514;SDS011;8370;52.556;7.970;2022-08-11T09:59:28;2.30;;;1.27;;
16514;SDS011;8370;52.556;7.970;2022-08-11T10:01:59;1.02;;;0.93;;
16514;SDS011;8370;52.556;7.970;2022-08-11T10:04:34;3.13;;;0.90;;
16514;SDS011;8370;52.556;7.970;2022-08-11T10:07:05;3.33;;;1.05;;
16514;SDS011;8370;52.556;7.970;2022-08-11T10:12:36;1.52;;;1.10;;
16514;SDS011;8370;52.556;7.970;2022-08-11T10:15:09;1.58;;;1.45;;
16514;SDS011;8370;52.556;7.970;2022-08-11T10:17:59;2.17;;;1.00;;
16514;SDS011;8370;52.556;7.970;2022-08-11T10:21:01;2.70;;;1.13;;
16514;SDS011;8370;52.556;7.970;2022-08-11T10:23:38;1.30;;;1.15;;
16514;SDS011;8370;52.556;7.970;2022-08-11T10:26:24;1.10;;;1.00;;
16514;SDS011;8370;52.556;7.970;2022-08-11T10:29:10;3.00;;;1.20;;
16514;SDS011;8370;52.556;7.970;2022-08-11T10:31:56;2.38;;;1.30;;
16514;SDS011;8370;52.556;7.970;2022-08-11T10:34:43;1.38;;;1.27;;
16514;SDS011;8370;52.556;7.970;2022-08-11T10:37:11;1.73;;;1.00;;
16514;SDS011;8370;52.556;7.970;2022-08-11T10:39:38;1.30;;;1.20;;
16514;SDS011;8370;52.556;7.970;2022-08-11T10:42:04;2.47;;;1.23;;
16514;SDS011;8370;52.556;7.970;2022-08-11T10:44:50;1.55;;;0.80;;
16514;SDS011;8370;52.556;7.970;2022-08-11T10:47:18;2.25;;;1.20;;
16514;SDS011;8370;52.556;7.970;2022-08-11T10:50:06;1.10;;;1.00;;
16514;SDS011;8370;52.556;7.970;2022-08-11T10:52:58;3.75;;;1.30;;
16514;SDS011;8370;52.556;7.970;2022-08-11T10:55:43;2.47;;;1.25;;
16514;SDS011;8370;52.556;7.970;2022-08-11T10:58:29;2.63;;;1.40;;
16514;SDS011;8370;52.556;7.970;2022-08-11T11:01:14;3.38;;;1.45;;
16514;SDS011;8370;52.556;7.970;2022-08-11T11:03:54;1.13;;;1.02;;
16514;SDS011;8370;52.556;7.970;2022-08-11T11:06:25;2.05;;;1.48;;
16514;SDS011;8370;52.556;7.970;2022-08-11T11:09:16;3.88;;;1.35;;
16514;SDS011;8370;52.556;7.970;2022-08-11T11:11:53;1.85;;;1.48;;
16514;SDS011;8370;52.556;7.970;2022-08-11T11:14:41;1.38;;;1.27;;
16514;SDS011;8370;52.556;7.970;2022-08-11T11:17:27;2.28;;;1.58;;
16514;SDS011;8370;52.556;7.970;2022-08-11T11:20:16;3.10;;;1.80;;
16514;SDS011;8370;52.556;7.970;2022-08-11T11:22:47;3.92;;;1.10;;
16514;SDS011;8370;52.556;7.970;2022-08-11T11:25:32;2.15;;;1.33;;
16514;SDS011;8370;52.556;7.970;2022-08-11T11:28:14;6.03;;;1.13;;
16514;SDS011;8370;52.556;7.970;2022-08-11T11:31:05;2.90;;;1.42;;
16514;SDS011;8370;52.556;7.970;2022-08-11T11:36:24;1.63;;;1.48;;
16514;SDS011;8370;52.556;7.970;2022-08-11T11:39:01;2.25;;;1.40;;
16514;SDS011;8370;52.556;7.970;2022-08-11T11:41:27;2.85;;;1.60;;
16514;SDS011;8370;52.556;7.970;2022-08-11T11:43:56;3.25;;;1.40;;
16514;SDS011;8370;52.556;7.970;2022-08-11T11:46:23;1.30;;;1.20;;
16514;SDS011;8370;52.556;7.970;2022-08-11T11:48:52;1.90;;;1.30;;
16514;SDS011;8370;52.556;7.970;2022-08-11T11:51:20;7.15;;;1.58;;
16514;SDS011;8370;52.556;7.970;2022-08-11T11:53:47;2.40;;;1.23;;
16514;SDS011;8370;52.556;7.970;2022-08-11T11:56:13;3.25;;;1.33;;
16514;SDS011;8370;52.556;7.970;2022-08-11T11:58:39;2.00;;;1.23;;
16514;SDS011;8370;52.556;7.970;2022-08-11T12:01:24;3.22;;;1.48;;
16514;SDS011;8370;52.556;7.970;2022-08-11T12:03:50;1.33;;;1.23;;
16514;SDS011;8370;52.556;7.970;2022-08-11T12:06:18;1.75;;;1.35;;
16514;SDS011;8370;52.556;7.970;2022-08-11T12:08:47;2.85;;;1.50;;
16514;SDS011;8370;52.556;7.970;2022-08-11T12:11:15;1.38;;;1.27;;
16514;SDS011;8370;52.556;7.970;2022-08-11T12:14:21;2.88;;;1.40;;
16514;SDS011;8370;52.556;7.970;2022-08-11T12:16:49;2.00;;;1.40;;
16514;SDS011;8370;52.556;7.970;2022-08-11T12:19:18;1.38;;;1.20;;
16514;SDS011;8370;52.556;7.970;2022-08-11T12:21:48;3.47;;;1.45;;
16514;SDS011;8370;52.556;7.970;2022-08-11T12:24:34;2.30;;;1.55;;
16514;SDS011;8370;52.556;7.970;2022-08-11T12:27:19;1.65;;;1.55;;
16514;SDS011;8370;52.556;7.970;2022-08-11T12:29:46;1.80;;;1.70;;
16514;SDS011;8370;52.556;7.970;2022-08-11T12:32:16;3.97;;;1.85;;
16514;SDS011;8370;52.556;7.970;2022-08-11T12:34:44;2.70;;;1.98;;
16514;SDS011;8370;52.556;7.970;2022-08-11T12:37:09;2.85;;;1.88;;
16514;SDS011;8370;52.556;7.970;2022-08-11T12:39:38;2.35;;;2.08;;
16514;SDS011;8370;52.556;7.970;2022-08-11T12:42:27;2.25;;;1.95;;
16514;SDS011;8370;52.556;7.970;2022-08-11T12:45:15;1.98;;;1.77;;
16514;SDS011;8370;52.556;7.970;2022-08-11T12:47:52;4.50;;;1.67;;
16514;SDS011;8370;52.556;7.970;2022-08-11T12:51:02;3.05;;;2.10;;
16514;SDS011;8370;52.556;7.970;2022-08-11T12:53:53;2.15;;;1.60;;
16514;SDS011;8370;52.556;7.970;2022-08-11T12:56:26;5.05;;;1.70;;
16514;SDS011;8370;52.556;7.970;2022-08-11T12:59:18;2.05;;;1.50;;
16514;SDS011;8370;52.556;7.970;2022-08-11T13:02:03;2.13;;;1.50;;
16514;SDS011;8370;52.556;7.970;2022-08-11T13:04:48;2.53;;;1.38;;
16514;SDS011;8370;52.556;7.970;2022-08-11T13:07:23;1.45;;;1.20;;
16514;SDS011;8370;52.556;7.970;2022-08-11T13:09:54;3.00;;;1.38;;
16514;SDS011;8370;52.556;7.970;2022-08-11T13:12:21;0.98;;;0.98;;
16514;SDS011;8370;52.556;7.970;2022-08-11T13:15:08;1.75;;;1.20;;
16514;SDS011;8370;52.556;7.970;2022-08-11T13:17:35;2.78;;;1.13;;
16514;SDS011;8370;52.556;7.970;2022-08-11T13:20:02;1.85;;;1.20;;
16514;SDS011;8370;52.556;7.970;2022-08-11T13:22:30;2.10;;;1.10;;
16514;SDS011;8370;52.556;7.970;2022-08-11T13:24:55;1.75;;;1.30;;
16514;SDS011;8370;52.556;7.970;2022-08-11T13:27:22;1.67;;;1.10;;
16514;SDS011;8370;52.556;7.970;2022-08-11T13:29:49;1.00;;;1.00;;
16514;SDS011;8370;52.556;7.970;2022-08-11T13:32:36;2.65;;;1.27;;
16514;SDS011;8370;52.556;7.970;2022-08-11T13:35:03;2.55;;;1.10;;
16514;SDS011;8370;52.556;7.970;2022-08-11T13:37:30;3.40;;;1.13;;
16514;SDS011;8370;52.556;7.970;2022-08-11T13:40:00;1.23;;;1.15;;
16514;SDS011;8370;52.556;7.970;2022-08-11T13:42:26;0.80;;;0.80;;
16514;SDS011;8370;52.556;7.970;2022-08-11T13:44:52;1.52;;;1.02;;
16514;SDS011;8370;52.556;7.970;2022-08-11T13:47:20;2.55;;;1.42;;
16514;SDS011;8370;52.556;7.970;2022-08-11T13:49:47;1.88;;;1.33;;
16514;SDS011;8370;52.556;7.970;2022-08-11T13:52:15;3.28;;;1.38;;
16514;SDS011;8370;52.556;7.970;2022-08-11T13:54:41;1.90;;;1.35;;
16514;SDS011;8370;52.556;7.970;2022-08-11T13:57:09;1.88;;;1.13;;
16514;SDS011;8370;52.556;7.970;2022-08-11T13:59:36;3.70;;;1.10;;
16514;SDS011;8370;52.556;7.970;2022-08-11T14:02:04;3.30;;;1.58;;
16514;SDS011;8370;52.556;7.970;2022-08-11T14:04:37;1.27;;;1.17;;
16514;SDS011;8370;52.556;7.970;2022-08-11T14:07:06;2.40;;;1.23;;
16514;SDS011;8370;52.556;7.970;2022-08-11T14:09:34;2.47;;;1.02;;
16514;SDS011;8370;52.556;7.970;2022-08-11T14:12:06;2.50;;;1.33;;
16514;SDS011;8370;52.556;7.970;2022-08-11T14:14:57;1.95;;;1.05;;
16514;SDS011;8370;52.556;7.970;2022-08-11T14:17:44;4.38;;;1.10;;
16514;SDS011;8370;52.556;7.970;2022-08-11T14:20:16;3.78;;;1.20;;
16514;SDS011;8370;52.556;7.970;2022-08-11T14:22:43;3.20;;;1.13;;
16514;SDS011;8370;52.556;7.970;2022-08-11T14:25:11;1.60;;;1.10;;
16514;SDS011;8370;52.556;7.970;2022-08-11T14:27:42;2.47;;;1.30;;
16514;SDS011;8370;52.556;7.970;2022-08-11T14:30:08;3.80;;;0.90;;
16514;SDS011;8370;52.556;7.970;2022-08-11T14:32:54;2.50;;;1.17;;
16514;SDS011;8370;52.556;7.970;2022-08-11T14:35:21;3.50;;;1.20;;
16514;SDS011;8370;52.556;7.970;2022-08-11T14:37:47;2.20;;;1.20;;
16514;SDS011;8370;52.556;7.970;2022-08-11T14:40:13;1.85;;;1.25;;
16514;SDS011;8370;52.556;7.970;2022-08-11T14:43:00;2.22;;;1.42;;
16514;SDS011;8370;52.556;7.970;2022-08-11T14:45:45;1.73;;;1.23;;
16514;SDS011;8370;52.556;7.970;2022-08-11T14:48:29;4.47;;;1.30;;
16514;SDS011;8370;52.556;7.970;2022-08-11T14:50:55;1.65;;;0.98;;
16514;SDS011;8370;52.556;7.970;2022-08-11T14:53:22;1.20;;;1.10;;
16514;SDS011;8370;52.556;7.970;2022-08-11T14:55:48;1.85;;;1.10;;
16514;SDS011;8370;52.556;7.970;2022-08-11T14:58:33;1.50;;;1.23;;
16514;SDS011;8370;52.556;7.970;2022-08-11T15:01:00;2.25;;;1.15;;
16514;SDS011;8370;52.556;7.970;2022-08-11T15:03:48;2.28;;;1.20;;
16514;SDS011;8370;52.556;7.970;2022-08-11T15:06:16;1.02;;;1.00;;
16514;SDS011;8370;52.556;7.970;2022-08-11T15:08:42;2.08;;;0.90;;
16514;SDS011;8370;52.556;7.970;2022-08-11T15:11:24;1.48;;;1.20;;
16514;SDS011;8370;52.556;7.970;2022-08-11T15:14:12;1.73;;;1.20;;
16514;SDS011;8370;52.556;7.970;2022-08-11T15:16:40;2.75;;;1.23;;
16514;SDS011;8370;52.556;7.970;2022-08-11T15:19:27;2.38;;;1.27;;
16514;SDS011;8370;52.556;7.970;2022-08-11T15:21:54;2.13;;;1.25;;
16514;SDS011;8370;52.556;7.970;2022-08-11T15:24:38;2.30;;;1.08;;
16514;SDS011;8370;52.556;7.970;2022-08-11T15:27:04;2.40;;;1.10;;
16514;SDS011;8370;52.556;7.970;2022-08-11T15:29:56;2.45;;;1.30;;
16514;SDS011;8370;52.556;7.970;2022-08-11T15:32:42;1.25;;;1.15;;
16514;SDS011;8370;52.556;7.970;2022-08-11T15:35:28;2.30;;;1.25;;
16514;SDS011;8370;52.556;7.970;2022-08-11T15:38:34;1.98;;;1.05;;
16514;SDS011;8370;52.556;7.970;2022-08-11T15:41:03;1.52;;;1.20;;
16514;SDS011;8370;52.556;7.970;2022-08-11T15:43:50;3.13;;;1.63;;
16514;SDS011;8370;52.556;7.970;2022-08-11T15:46:41;1.70;;;1.20;;
16514;SDS011;8370;52.556;7.970;2022-08-11T15:49:22;3.20;;;1.42;;
16514;SDS011;8370;52.556;7.970;2022-08-11T15:51:57;1.48;;;1.15;;
16514;SDS011;8370;52.556;7.970;2022-08-11T15:54:28;1.52;;;1.40;;
16514;SDS011;8370;52.556;7.970;2022-08-11T15:56:56;2.22;;;1.45;;
16514;SDS011;8370;52.556;7.970;2022-08-11T15:59:24;2.15;;;1.48;;
16514;SDS011;8370;52.556;7.970;2022-08-11T16:02:12;2.28;;;1.45;;
16514;SDS011;8370;52.556;7.970;2022-08-11T16:04:58;1.98;;;1.60;;
16514;SDS011;8370;52.556;7.970;2022-08-11T16:07:31;2.30;;;1.20;;
16514;SDS011;8370;52.556;7.970;2022-08-11T16:10:05;2.88;;;1.45;;
16514;SDS011;8370;52.556;7.970;2022-08-11T16:12:56;5.60;;;1.40;;
16514;SDS011;8370;52.556;7.970;2022-08-11T16:15:43;5.10;;;1.90;;
16514;SDS011;8370;52.556;7.970;2022-08-11T16:18:32;1.50;;;1.40;;
16514;SDS011;8370;52.556;7.970;2022-08-11T16:21:25;2.35;;;1.60;;
16514;SDS011;8370;52.556;7.970;2022-08-11T16:23:54;2.85;;;1.38;;
16514;SDS011;8370;52.556;7.970;2022-08-11T16:26:23;2.13;;;1.60;;
16514;SDS011;8370;52.556;7.970;2022-08-11T16:28:50;2.10;;;1.40;;
16514;SDS011;8370;52.556;7.970;2022-08-11T16:31:19;1.75;;;1.30;;
16514;SDS011;8370;52.556;7.970;2022-08-11T16:33:45;4.35;;;1.70;;
16514;SDS011;8370;52.556;7.970;2022-08-11T16:36:12;3.30;;;1.60;;
16514;SDS011;8370;52.556;7.970;2022-08-11T16:38:58;1.98;;;1.42;;
16514;SDS011;8370;52.556;7.970;2022-08-11T16:41:26;1.75;;;1.48;;
16514;SDS011;8370;52.556;7.970;2022-08-11T16:44:17;2.95;;;1.30;;
16514;SDS011;8370;52.556;7.970;2022-08-11T16:47:02;3.65;;;1.67;;
16514;SDS011;8370;52.556;7.970;2022-08-11T16:49:34;3.03;;;1.50;;
16514;SDS011;8370;52.556;7.970;2022-08-11T16:52:02;1.38;;;1.27;;
16514;SDS011;8370;52.556;7.970;2022-08-11T16:54:32;1.30;;;1.20;;
16514;SDS011;8370;52.556;7.970;2022-08-11T16:56:59;2.42;;;1.33;;
16514;SDS011;8370;52.556;7.970;2022-08-11T16:59:52;2.45;;;1.45;;
16514;SDS011;8370;52.556;7.970;2022-08-11T17:02:22;2.47;;;1.80;;
16514;SDS011;8370;52.556;7.970;2022-08-11T17:05:12;2.92;;;1.45;;
16514;SDS011;8370;52.556;7.970;2022-08-11T17:07:59;2.20;;;1.38;;
16514;SDS011;8370;52.556;7.970;2022-08-11T17:10:49;2.25;;;2.05;;
16514;SDS011;8370;52.556;7.970;2022-08-11T17:13:41;2.10;;;1.70;;
16514;SDS011;8370;52.556;7.970;2022-08-11T17:16:10;3.05;;;1.48;;
16514;SDS011;8370;52.556;7.970;2022-08-11T17:21:10;1.42;;;1.33;;
16514;SDS011;8370;52.556;7.970;2022-08-11T17:23:39;2.08;;;1.70;;
16514;SDS011;8370;52.556;7.970;2022-08-11T17:26:17;2.80;;;1.45;;
16514;SDS011;8370;52.556;7.970;2022-08-11T17:28:46;3.30;;;1.30;;
16514;SDS011;8370;52.556;7.970;2022-08-11T17:31:16;3.05;;;1.40;;
16514;SDS011;8370;52.556;7.970;2022-08-11T17:34:02;1.15;;;1.13;;
16514;SDS011;8370;52.556;7.970;2022-08-11T17:36:49;2.85;;;1.40;;
16514;SDS011;8370;52.556;7.970;2022-08-11T17:39:17;1.60;;;1.35;;
16514;SDS011;8370;52.556;7.970;2022-08-11T17:41:45;2.00;;;1.70;;
16514;SDS011;8370;52.556;7.970;2022-08-11T17:44:29;1.50;;;1.40;;
16514;SDS011;8370;52.556;7.970;2022-08-11T17:47:14;3.22;;;1.70;;
16514;SDS011;8370;52.556;7.970;2022-08-11T17:50:00;2.53;;;1.48;;
16514;SDS011;8370;52.556;7.970;2022-08-11T17:52:27;2.50;;;1.52;;
16514;SDS011;8370;52.556;7.970;2022-08-11T17:55:13;1.67;;;1.40;;
16514;SDS011;8370;52.556;7.970;2022-08-11T17:57:58;2.72;;;1.20;;
16514;SDS011;8370;52.556;7.970;2022-08-11T18:00:43;2.10;;;1.30;;
16514;SDS011;8370;52.556;7.970;2022-08-11T18:03:08;4.28;;;1.75;;
16514;SDS011;8370;52.556;7.970;2022-08-11T18:05:53;2.35;;;1.55;;
16514;SDS011;8370;52.556;7.970;2022-08-11T18:08:21;2.47;;;1.50;;
16514;SDS011;8370;52.556;7.970;2022-08-11T18:11:06;1.83;;;1.63;;
16514;SDS011;8370;52.556;7.970;2022-08-11T18:13:51;1.73;;;1.35;;
16514;SDS011;8370;52.556;7.970;2022-08-11T18:16:36;2.13;;;1.75;;
16514;SDS011;8370;52.556;7.970;2022-08-11T18:19:20;2.15;;;1.77;;
16514;SDS011;8370;52.556;7.970;2022-08-11T18:22:08;4.57;;;1.70;;
16514;SDS011;8370;52.556;7.970;2022-08-11T18:25:00;2.10;;;1.73;;
16514;SDS011;8370;52.556;7.970;2022-08-11T18:27:48;2.78;;;1.80;;
16514;SDS011;8370;52.556;7.970;2022-08-11T18:30:37;3.13;;;1.83;;
16514;SDS011;8370;52.556;7.970;2022-08-11T18:33:23;1.90;;;1.60;;
16514;SDS011;8370;52.556;7.970;2022-08-11T18:36:12;1.92;;;1.67;;
16514;SDS011;8370;52.556;7.970;2022-08-11T18:39:01;3.83;;;1.90;;
16514;SDS011;8370;52.556;7.970;2022-08-11T18:41:47;1.50;;;1.40;;
16514;SDS011;8370;52.556;7.970;2022-08-11T18:44:33;2.33;;;2.13;;
16514;SDS011;8370;52.556;7.970;2022-08-11T18:47:20;6.97;;;2.35;;
16514;SDS011;8370;52.556;7.970;2022-08-11T18:50:06;1.90;;;1.63;;
16514;SDS011;8370;52.556;7.970;2022-08-11T18:52:54;2.30;;;1.65;;
16514;SDS011;8370;52.556;7.970;2022-08-11T18:55:39;5.07;;;1.75;;
16514;SDS011;8370;52.556;7.970;2022-08-11T18:58:26;2.15;;;1.85;;
16514;SDS011;8370;52.556;7.970;2022-08-11T19:01:13;6.28;;;1.88;;
16514;SDS011;8370;52.556;7.970;2022-08-11T19:04:01;2.80;;;1.83;;
16514;SDS011;8370;52.556;7.970;2022-08-11T19:06:47;4.40;;;1.60;;
16514;SDS011;8370;52.556;7.970;2022-08-11T19:09:34;3.67;;;2.05;;